Time;durP1;ratioP1;P1;durP2;ratioP2;P2;SDS_P1;SDS_P2;PMS_P1;PMS_P2;Temp;Humidity;BMP_temperature;BMP_pressure;BME280_temperature;BME280_humidity;BME280_pressure;Samples;Min_cycle;Max_cycle;Signal;HPM_P1;HPM_P2
2022/07/19 00:02:07;;;;;;;5.97;3.58;;;;;;;16.29;77.98;96067.03;5005682;28;20095;-77
2022/07/19 00:04:34;;;;;;;6.35;4.00;;;;;;;16.24;78.03;96064.47;5027697;28;20046;-77
2022/07/19 00:07:00;;;;;;;6.05;3.88;;;;;;;16.14;78.02;96064.66;5009414;28;20096;-77
2022/07/19 00:09:26;;;;;;;6.18;3.72;;;;;;;16.11;78.72;96069.44;5004145;28;20412;-77
2022/07/19 00:11:52;;;;;;;8.50;4.05;;;;;;;16.09;78.63;96063.66;5027505;28;20053;-77
2022/07/19 00:14:19;;;;;;;6.95;3.83;;;;;;;16.06;78.82;96064.25;5011225;28;20048;-77
2022/07/19 00:16:44;;;;;;;6.68;3.85;;;;;;;16.09;79.22;96068.97;5008752;28;20034;-77
2022/07/19 00:19:10;;;;;;;8.38;3.92;;;;;;;16.05;79.61;96065.31;5026292;28;20053;-76
2022/07/19 00:21:35;;;;;;;7.53;3.78;;;;;;;16.01;79.63;96061.66;5011179;28;20405;-77
2022/07/19 00:24:01;;;;;;;5.72;3.58;;;;;;;15.86;79.73;96053.94;5013316;28;20518;-77
2022/07/19 00:26:29;;;;;;;5.80;3.78;;;;;;;15.94;79.96;96066.56;5014143;28;20052;-77
2022/07/19 00:28:56;;;;;;;7.22;3.83;;;;;;;15.94;80.31;96056.72;5006471;28;20042;-76
2022/07/19 00:31:22;;;;;;;5.38;3.50;;;;;;;15.94;80.05;96055.94;5014058;28;20053;-76
2022/07/19 00:33:48;;;;;;;6.30;3.25;;;;;;;15.81;80.62;96062.75;5013431;28;20100;-77
2022/07/19 00:36:13;;;;;;;5.85;3.88;;;;;;;15.77;81.36;96057.22;5028322;28;20049;-77
2022/07/19 00:38:39;;;;;;;5.15;3.40;;;;;;;15.77;81.74;96062.53;5027458;28;20092;-76
2022/07/19 00:41:04;;;;;;;7.32;3.53;;;;;;;15.75;82.13;96059.38;5011962;28;20125;-78
2022/07/19 00:43:30;;;;;;;5.60;3.80;;;;;;;15.62;82.36;96064.63;5013980;28;20682;-77
2022/07/19 00:45:56;;;;;;;6.88;3.40;;;;;;;15.66;81.90;96061.13;5013759;28;20057;-77
2022/07/19 00:48:22;;;;;;;5.22;3.28;;;;;;;15.59;82.74;96056.16;5011303;28;20073;-78
2022/07/19 00:50:47;;;;;;;4.65;3.20;;;;;;;15.60;82.41;96062.25;5010615;28;20045;-76
2022/07/19 00:53:14;;;;;;;6.60;3.60;;;;;;;15.57;83.00;96060.16;5011188;28;20388;-77
2022/07/19 00:55:41;;;;;;;6.57;3.70;;;;;;;15.51;83.16;96056.03;5010901;28;20038;-77
2022/07/19 00:58:08;;;;;;;6.00;3.83;;;;;;;15.50;83.12;96057.09;5008945;28;20419;-77
2022/07/19 01:00:35;;;;;;;7.13;3.78;;;;;;;15.44;83.56;96047.63;5010339;28;20050;-77
2022/07/19 01:03:01;;;;;;;7.82;3.75;;;;;;;15.28;84.23;96058.44;5011535;28;20033;-77
2022/07/19 01:05:27;;;;;;;6.47;3.83;;;;;;;15.31;84.57;96059.75;5023980;28;20114;-78
2022/07/19 01:07:53;;;;;;;6.18;3.55;;;;;;;15.25;84.26;96057.16;5026686;28;20070;-76
2022/07/19 01:10:19;;;;;;;5.93;3.80;;;;;;;15.19;85.13;96062.81;5010128;28;20057;-77
2022/07/19 01:12:45;;;;;;;6.13;3.53;;;;;;;15.26;84.96;96057.94;5009710;28;20064;-78
2022/07/19 01:15:23;;;;;;;6.13;3.92;;;;;;;15.22;84.82;96056.94;5010192;28;20038;-77
2022/07/19 01:17:49;;;;;;;6.45;3.88;;;;;;;15.10;85.81;96054.72;5010225;28;20049;-77
2022/07/19 01:20:15;;;;;;;7.88;4.00;;;;;;;15.19;84.84;96052.22;5007937;28;20049;-77
2022/07/19 01:22:42;;;;;;;6.40;3.60;;;;;;;15.00;85.75;96050.31;5009167;28;20044;-77
2022/07/19 01:25:08;;;;;;;6.57;3.83;;;;;;;14.95;86.59;96047.72;5009106;28;20053;-76
2022/07/19 01:27:41;;;;;;;9.18;3.88;;;;;;;15.01;86.01;96054.56;5006810;28;20034;-75
2022/07/19 01:30:15;;;;;;;5.20;3.60;;;;;;;15.02;86.20;96047.38;5003432;28;20049;-76
2022/07/19 01:32:41;;;;;;;7.47;3.67;;;;;;;15.01;86.35;96051.91;5011590;28;20064;-77
2022/07/19 01:35:07;;;;;;;5.57;3.75;;;;;;;15.02;86.57;96053.47;5026273;28;20046;-75
2022/07/19 01:37:36;;;;;;;6.57;3.53;;;;;;;14.97;86.09;96056.19;5010812;28;20034;-77
2022/07/19 01:40:07;;;;;;;6.57;4.55;;;;;;;14.92;85.83;96064.19;5007340;28;20041;-77
2022/07/19 01:42:33;;;;;;;5.72;3.65;;;;;;;14.91;85.71;96062.59;5001365;28;20034;-77
2022/07/19 01:44:59;;;;;;;8.48;3.80;;;;;;;14.82;86.01;96059.78;5008653;28;20053;-76
2022/07/19 01:47:24;;;;;;;5.90;3.50;;;;;;;14.79;86.37;96064.88;5012583;28;20045;-77
2022/07/19 01:49:50;;;;;;;5.95;3.88;;;;;;;14.73;85.84;96061.50;5000640;28;20038;-76
2022/07/19 01:52:16;;;;;;;6.28;3.42;;;;;;;14.70;86.09;96057.56;5010933;28;20588;-76
2022/07/19 01:54:41;;;;;;;4.90;3.53;;;;;;;14.66;86.57;96056.53;5011470;28;20069;-76
2022/07/19 01:57:07;;;;;;;7.70;3.78;;;;;;;14.65;86.74;96065.56;5009658;28;20057;-76
2022/07/19 01:59:32;;;;;;;4.90;3.70;;;;;;;14.61;86.22;96059.22;5005411;28;20034;-77
2022/07/19 02:01:58;;;;;;;4.78;3.50;;;;;;;14.49;87.69;96062.22;5009810;28;20066;-77
2022/07/19 02:04:23;;;;;;;6.45;3.38;;;;;;;14.45;88.58;96060.44;5011411;28;20042;-77
2022/07/19 02:06:48;;;;;;;7.78;3.53;;;;;;;14.45;88.12;96049.84;5010599;28;20068;-76
2022/07/19 02:09:14;;;;;;;5.38;3.92;;;;;;;14.34;89.21;96044.66;5010757;28;20541;-77
2022/07/19 02:11:40;;;;;;;5.55;3.53;;;;;;;14.15;90.69;96036.63;5007156;28;20042;-77
2022/07/19 02:14:09;;;;;;;6.80;3.70;;;;;;;14.18;90.37;96035.28;5010062;28;20046;-76
2022/07/19 02:16:36;;;;;;;4.57;3.45;;;;;;;14.17;90.78;96039.78;5011730;28;20542;-77
2022/07/19 02:19:03;;;;;;;5.15;3.63;;;;;;;14.24;90.45;96036.81;5010858;28;20050;-77
2022/07/19 02:21:29;;;;;;;4.70;3.50;;;;;;;14.14;90.93;96042.22;5022152;28;20049;-75
2022/07/19 02:23:54;;;;;;;5.20;3.58;;;;;;;14.18;90.57;96032.66;5025238;28;20121;-77
2022/07/19 02:26:20;;;;;;;9.15;3.60;;;;;;;14.11;90.86;96030.31;5010861;28;20050;-77
2022/07/19 02:28:46;;;;;;;5.20;3.83;;;;;;;14.13;90.59;96025.53;5010093;28;20099;-76
2022/07/19 02:31:11;;;;;;;5.45;3.60;;;;;;;14.20;90.58;96030.50;5009813;28;20042;-77
2022/07/19 02:33:37;;;;;;;5.68;4.00;;;;;;;14.08;91.24;96025.59;5010123;28;20045;-76
2022/07/19 02:36:03;;;;;;;4.93;3.60;;;;;;;14.15;90.93;96022.59;5025020;28;20496;-77
2022/07/19 02:38:29;;;;;;;4.85;3.50;;;;;;;14.06;91.51;96021.63;5010770;28;20042;-77
2022/07/19 02:40:55;;;;;;;7.15;3.72;;;;;;;14.02;91.92;96016.91;5009818;28;20317;-77
2022/07/19 02:43:21;;;;;;;7.78;4.28;;;;;;;14.04;92.00;96013.97;5012330;28;20042;-76
2022/07/19 02:45:46;;;;;;;7.28;3.78;;;;;;;14.04;91.65;96020.03;5011112;28;20045;-76
2022/07/19 02:48:12;;;;;;;5.25;3.67;;;;;;;14.02;92.44;96019.53;5028233;28;20038;-76
2022/07/19 02:50:37;;;;;;;5.22;3.70;;;;;;;13.95;92.60;96021.72;5028393;28;20113;-77
2022/07/19 02:53:03;;;;;;;7.90;3.53;;;;;;;13.96;92.30;96027.78;5029390;28;20049;-77
2022/07/19 02:55:28;;;;;;;5.53;3.67;;;;;;;13.96;92.16;96018.00;5013722;28;20042;-76
2022/07/19 02:57:54;;;;;;;5.75;3.65;;;;;;;13.80;92.41;96016.56;5014406;28;20435;-77
2022/07/19 03:00:20;;;;;;;5.65;4.00;;;;;;;13.78;92.48;96021.34;5015120;28;20652;-77
2022/07/19 03:02:45;;;;;;;5.65;4.00;;;;;;;13.71;92.79;96026.94;5013307;28;20046;-77
2022/07/19 03:05:11;;;;;;;6.10;3.78;;;;;;;13.69;93.14;96019.28;5024842;28;20042;-77
2022/07/19 03:07:36;;;;;;;5.55;3.90;;;;;;;13.64;92.99;96021.94;5014388;28;20042;-77
2022/07/19 03:10:03;;;;;;;5.28;3.70;;;;;;;13.71;92.14;96023.50;5013945;28;20057;-76
2022/07/19 03:12:28;;;;;;;6.60;3.75;;;;;;;13.66;92.39;96025.13;5011270;28;20038;-77
2022/07/19 03:14:54;;;;;;;5.68;3.90;;;;;;;13.52;93.49;96026.81;5014603;28;20065;-77
2022/07/19 03:17:19;;;;;;;7.25;3.95;;;;;;;13.41;94.93;96022.66;5013724;28;20041;-78
2022/07/19 03:19:45;;;;;;;4.97;3.90;;;;;;;13.48;94.68;96023.13;5013124;28;20080;-77
2022/07/19 03:22:12;;;;;;;6.15;4.10;;;;;;;13.50;94.34;96027.09;5013630;28;20054;-77
2022/07/19 03:24:37;;;;;;;5.60;3.95;;;;;;;13.39;95.26;96030.88;5013475;28;20050;-77
2022/07/19 03:27:03;;;;;;;5.95;3.88;;;;;;;13.37;95.44;96026.91;5014121;28;20049;-77
2022/07/19 03:29:29;;;;;;;6.57;4.07;;;;;;;13.39;95.40;96024.78;5005408;28;20042;-77
2022/07/19 03:31:54;;;;;;;5.55;3.90;;;;;;;13.48;95.01;96017.84;5013743;28;20385;-77
2022/07/19 03:34:20;;;;;;;5.05;3.72;;;;;;;13.52;94.89;96024.19;5013942;28;20049;-78
2022/07/19 03:36:45;;;;;;;5.90;3.92;;;;;;;13.45;95.51;96018.41;5013587;28;20049;-78
2022/07/19 03:39:11;;;;;;;6.35;4.20;;;;;;;13.51;94.97;96027.88;5006942;28;20072;-77
2022/07/19 03:41:36;;;;;;;5.13;3.53;;;;;;;13.51;94.80;96022.59;5008773;28;20038;-77
2022/07/19 03:44:02;;;;;;;5.97;4.20;;;;;;;13.27;96.04;96017.94;5013660;28;20046;-77
2022/07/19 03:46:28;;;;;;;6.25;3.80;;;;;;;13.36;96.27;96025.31;5016897;28;20042;-77
2022/07/19 03:48:55;;;;;;;6.07;4.20;;;;;;;13.37;96.43;96026.91;5028597;28;20053;-77
2022/07/19 03:51:21;;;;;;;7.35;3.90;;;;;;;13.31;96.82;96021.63;5011503;28;20105;-77
2022/07/19 03:53:47;;;;;;;6.28;4.30;;;;;;;13.41;96.61;96018.16;5014716;28;20042;-76
2022/07/19 03:56:13;;;;;;;6.82;3.90;;;;;;;13.37;96.52;96017.13;5010383;28;20050;-77
2022/07/19 03:58:39;;;;;;;7.35;3.88;;;;;;;13.26;97.10;96016.38;5005432;28;20034;-76
2022/07/19 04:01:04;;;;;;;7.03;4.32;;;;;;;13.30;97.04;96022.69;5013585;28;20061;-77
2022/07/19 04:03:30;;;;;;;6.88;4.50;;;;;;;13.32;97.10;96020.56;5005051;28;20080;-77
2022/07/19 04:05:55;;;;;;;7.20;4.45;;;;;;;13.40;96.47;96026.34;5010332;28;20048;-77
2022/07/19 04:08:21;;;;;;;6.35;4.43;;;;;;;13.46;96.33;96030.53;5025108;28;20415;-77
2022/07/19 04:10:46;;;;;;;7.38;4.18;;;;;;;13.31;96.82;96024.25;5011697;28;20045;-77
2022/07/19 04:13:12;;;;;;;6.93;4.03;;;;;;;13.29;96.83;96026.41;5012046;28;20041;-77
2022/07/19 04:15:37;;;;;;;7.47;4.13;;;;;;;13.33;97.82;96027.44;5002249;28;20474;-76
2022/07/19 04:18:03;;;;;;;6.22;4.32;;;;;;;13.38;97.85;96028.50;5011025;28;20133;-78
2022/07/19 04:20:28;;;;;;;8.70;4.72;;;;;;;13.44;97.39;96030.03;5011123;28;20048;-77
2022/07/19 04:22:55;;;;;;;6.50;4.78;;;;;;;13.53;96.88;96031.03;5011152;28;20529;-77
2022/07/19 04:25:20;;;;;;;8.30;4.32;;;;;;;13.54;96.50;96027.31;5011571;28;20034;-77
2022/07/19 04:27:47;;;;;;;8.43;4.30;;;;;;;13.47;97.53;96029.47;5009970;28;20049;-76
2022/07/19 04:30:12;;;;;;;5.70;4.18;;;;;;;13.50;97.31;96031.56;5021793;28;20496;-78
2022/07/19 04:32:38;;;;;;;6.72;4.57;;;;;;;13.66;96.73;96025.13;5011203;28;20060;-77
2022/07/19 04:35:05;;;;;;;6.38;4.65;;;;;;;13.64;97.69;96024.59;5011484;28;20093;-77
2022/07/19 04:37:30;;;;;;;6.80;4.68;;;;;;;13.78;96.89;96026.63;5010604;28;20058;-76
2022/07/19 04:39:56;;;;;;;7.72;5.28;;;;;;;13.81;97.02;96018.13;5002630;28;20538;-76
2022/07/19 04:42:21;;;;;;;7.20;4.70;;;;;;;13.82;97.02;96022.34;5005723;28;20529;-76
2022/07/19 04:44:46;;;;;;;7.07;4.88;;;;;;;13.94;96.63;96020.13;5024619;28;20045;-76
2022/07/19 04:47:12;;;;;;;7.65;4.72;;;;;;;14.04;95.99;96009.47;5008140;28;20462;-77
2022/07/19 04:49:38;;;;;;;7.78;5.00;;;;;;;14.16;95.54;96011.72;5012326;28;20042;-77
2022/07/19 04:52:03;;;;;;;6.50;4.80;;;;;;;14.33;93.35;96011.28;5008861;28;20038;-77
2022/07/19 04:54:29;;;;;;;7.78;4.95;;;;;;;14.49;92.56;96008.50;5012472;28;20049;-77
2022/07/19 04:56:54;;;;;;;8.93;4.78;;;;;;;14.64;89.88;96020.78;5013777;28;20551;-77
2022/07/19 04:59:20;;;;;;;9.98;5.38;;;;;;;14.71;89.04;96011.44;5014216;28;20041;-77
2022/07/19 05:01:45;;;;;;;7.47;4.95;;;;;;;14.84;87.79;96020.56;5014232;28;20127;-77
2022/07/19 05:04:11;;;;;;;8.57;5.28;;;;;;;14.91;86.80;96014.91;5013720;28;20077;-76
2022/07/19 05:06:36;;;;;;;7.93;5.15;;;;;;;14.96;86.82;96006.91;5014520;28;20554;-76
2022/07/19 05:09:02;;;;;;;10.23;5.05;;;;;;;14.96;87.52;96014.84;5027150;28;20053;-77
2022/07/19 05:11:28;;;;;;;8.90;5.30;;;;;;;14.98;87.67;96010.06;5013245;28;20046;-78
2022/07/19 05:13:53;;;;;;;9.07;4.80;;;;;;;15.02;88.32;96005.75;5030852;28;20034;-78
2022/07/19 05:16:19;;;;;;;7.60;5.03;;;;;;;15.10;88.32;96008.84;5017250;28;20113;-76
2022/07/19 05:18:45;;;;;;;9.25;5.40;;;;;;;15.15;87.85;96014.09;5013866;28;20513;-77
2022/07/19 05:21:10;;;;;;;10.23;4.97;;;;;;;15.21;88.03;96010.28;5023953;28;20056;-77
2022/07/19 05:23:35;;;;;;;10.73;5.20;;;;;;;15.25;86.58;96016.59;5025052;28;20068;-75
2022/07/19 05:26:01;;;;;;;7.47;4.97;;;;;;;15.30;86.58;96016.53;5011576;28;20316;-77
2022/07/19 05:28:26;;;;;;;8.02;5.20;;;;;;;15.37;86.41;96019.63;5010146;28;20034;-75
2022/07/19 05:30:52;;;;;;;11.63;5.45;;;;;;;15.44;86.06;96010.50;5010003;28;20418;-77
2022/07/19 05:33:17;;;;;;;11.18;5.32;;;;;;;15.50;86.84;96019.97;5008038;28;20092;-77
2022/07/19 05:35:43;;;;;;;8.63;5.32;;;;;;;15.58;85.87;96016.66;5010970;28;20499;-77
2022/07/19 05:38:08;;;;;;;9.90;5.80;;;;;;;15.64;86.99;96007.53;5010408;28;20115;-76
2022/07/19 05:40:34;;;;;;;13.80;5.75;;;;;;;15.68;86.25;96005.88;5022864;28;20042;-77
2022/07/19 05:43:00;;;;;;;10.82;5.38;;;;;;;15.76;86.34;96013.19;5012820;28;20040;-76
2022/07/19 05:45:26;;;;;;;9.85;5.93;;;;;;;15.81;86.46;96015.00;5013632;28;20394;-76
2022/07/19 05:47:52;;;;;;;11.45;6.15;;;;;;;16.37;79.55;96015.91;5012236;28;20041;-77
2022/07/19 05:50:17;;;;;;;8.50;5.63;;;;;;;16.28;83.13;96009.72;5011561;28;20039;-76
2022/07/19 05:52:42;;;;;;;13.40;6.28;;;;;;;16.26;84.10;96010.00;5009765;28;20539;-76
2022/07/19 05:55:08;;;;;;;10.50;5.80;;;;;;;16.31;84.08;96011.00;5012777;28;20121;-76
2022/07/19 05:57:34;;;;;;;12.00;6.32;;;;;;;16.36;84.55;96009.00;5010971;28;20038;-77
2022/07/19 05:59:59;;;;;;;10.30;5.95;;;;;;;16.40;81.18;96004.69;5011889;28;20582;-77
2022/07/19 06:02:25;;;;;;;14.00;6.22;;;;;;;16.52;82.98;96011.38;5015964;28;20077;-77
2022/07/19 06:04:50;;;;;;;11.25;5.90;;;;;;;16.62;83.49;96005.88;5028050;28;20038;-77
2022/07/19 06:07:16;;;;;;;10.45;5.85;;;;;;;16.67;83.65;96008.44;5014976;28;20053;-76
2022/07/19 06:09:42;;;;;;;10.07;5.85;;;;;;;17.24;78.69;96009.97;5011466;28;20068;-78
2022/07/19 06:12:07;;;;;;;13.48;6.22;;;;;;;17.36;78.34;96007.56;5012892;28;20041;-76
2022/07/19 06:14:32;;;;;;;9.80;5.95;;;;;;;17.89;74.66;96007.97;5015823;28;20113;-77
2022/07/19 06:16:59;;;;;;;11.38;5.68;;;;;;;17.79;76.07;96009.75;5027800;28;20038;-77
2022/07/19 06:19:26;;;;;;;10.45;5.93;;;;;;;17.87;76.01;96004.81;5014003;28;20061;-77
2022/07/19 06:21:52;;;;;;;11.80;5.78;;;;;;;17.98;74.86;96000.81;5017256;28;20488;-77
2022/07/19 06:24:19;;;;;;;12.23;5.68;;;;;;;18.06;74.11;96013.41;5035230;28;20046;-77
2022/07/19 06:26:44;;;;;;;12.75;6.35;;;;;;;18.05;74.19;96017.16;5010347;28;20034;-75
2022/07/19 06:29:10;;;;;;;13.07;5.88;;;;;;;18.39;72.56;96005.13;5015644;28;20756;-78
2022/07/19 06:31:35;;;;;;;14.68;6.30;;;;;;;18.34;74.10;96007.91;5033282;28;20092;-78
2022/07/19 06:34:01;;;;;;;15.60;5.88;;;;;;;18.40;73.70;96006.66;5015009;28;20138;-75
2022/07/19 06:36:27;;;;;;;10.23;5.72;;;;;;;18.36;74.96;96005.72;5027701;28;20042;-77
2022/07/19 06:38:52;;;;;;;11.40;5.65;;;;;;;18.48;72.02;96008.59;5012137;28;20462;-76
2022/07/19 06:41:18;;;;;;;10.35;5.35;;;;;;;19.02;68.92;96010.34;5026482;28;20045;-81
2022/07/19 06:43:43;;;;;;;8.55;5.20;;;;;;;18.89;71.99;96011.25;5014559;28;20407;-77
2022/07/19 06:46:10;;;;;;;6.57;5.10;;;;;;;18.84;70.50;96004.16;5012900;28;20049;-76
2022/07/19 06:48:35;;;;;;;10.48;5.50;;;;;;;18.94;72.07;95997.78;5012908;28;20038;-76
2022/07/19 06:51:01;;;;;;;9.00;5.18;;;;;;;19.45;67.05;95996.28;5013145;28;20045;-76
2022/07/19 06:53:26;;;;;;;8.38;5.03;;;;;;;19.83;66.23;95992.97;5014698;28;20080;-80
2022/07/19 06:55:52;;;;;;;8.13;5.07;;;;;;;19.89;64.21;95994.34;5014860;28;20133;-78
2022/07/19 06:58:18;;;;;;;8.88;4.68;;;;;;;19.97;64.24;95995.44;5030412;28;20088;-77
2022/07/19 07:00:44;;;;;;;8.25;4.95;;;;;;;20.00;62.53;95994.03;5018883;28;20128;-77
2022/07/19 07:03:09;;;;;;;10.40;4.95;;;;;;;20.22;61.89;95996.47;5018657;28;20043;-77
2022/07/19 07:05:35;;;;;;;7.88;5.05;;;;;;;20.33;60.57;96001.47;5033108;28;20125;-78
2022/07/19 07:08:01;;;;;;;7.25;4.93;;;;;;;20.43;61.20;96001.13;5013896;28;20061;-78
2022/07/19 07:10:27;;;;;;;8.95;4.90;;;;;;;20.69;58.93;96002.94;5011783;28;20100;-77
2022/07/19 07:12:52;;;;;;;6.50;5.00;;;;;;;20.70;59.73;96004.47;5027317;28;20117;-80
2022/07/19 07:15:18;;;;;;;8.38;4.95;;;;;;;20.81;59.00;96003.03;5013438;28;20041;-78
2022/07/19 07:17:43;;;;;;;6.22;4.50;;;;;;;21.00;58.74;96007.16;5012075;28;20064;-78
2022/07/19 07:20:10;;;;;;;6.60;4.63;;;;;;;21.24;57.94;96012.66;5005305;28;20037;-77
2022/07/19 07:22:36;;;;;;;7.57;4.50;;;;;;;21.56;56.50;96006.94;5012857;28;20416;-78
2022/07/19 07:25:03;;;;;;;6.97;4.63;;;;;;;21.83;55.06;96005.59;5010681;28;20042;-77
2022/07/19 07:27:28;;;;;;;6.60;4.22;;;;;;;21.49;57.81;95996.72;5010618;28;20061;-79
2022/07/19 07:29:54;;;;;;;14.43;5.03;;;;;;;21.18;59.48;95986.44;5009892;28;20038;-78
2022/07/19 07:32:20;;;;;;;6.75;4.65;;;;;;;21.15;60.16;95998.56;5012082;28;20045;-83
2022/07/19 07:34:46;;;;;;;7.40;4.55;;;;;;;21.62;56.41;95995.72;5010170;28;20583;-78
2022/07/19 07:37:11;;;;;;;9.80;4.68;;;;;;;21.59;56.49;95990.22;5025838;28;20038;-79
2022/07/19 07:39:37;;;;;;;8.30;4.50;;;;;;;22.03;54.77;95987.13;5027042;28;20083;-81
2022/07/19 07:42:04;;;;;;;8.95;4.40;;;;;;;22.44;54.28;95990.78;5006815;28;20046;-79
2022/07/19 07:44:30;;;;;;;8.05;4.45;;;;;;;22.31;54.34;95993.44;5010164;28;20048;-78
2022/07/19 07:46:56;;;;;;;8.93;5.20;;;;;;;22.54;53.80;95990.38;5024846;28;20046;-79
2022/07/19 07:49:21;;;;;;;9.77;5.10;;;;;;;22.42;53.28;95983.09;5010927;28;20092;-79
2022/07/19 07:51:47;;;;;;;7.07;4.82;;;;;;;22.16;54.72;95986.03;5012749;28;20251;-78
2022/07/19 07:54:13;;;;;;;7.40;4.53;;;;;;;22.13;53.11;95984.03;5027371;28;20451;-82
2022/07/19 07:56:38;;;;;;;9.50;4.78;;;;;;;22.43;51.00;95983.88;5026941;28;20110;-79
2022/07/19 07:59:04;;;;;;;7.50;4.38;;;;;;;22.47;50.23;95984.78;5025651;28;20048;-78
2022/07/19 08:01:30;;;;;;;7.40;4.25;;;;;;;22.79;49.33;95974.28;5011880;28;20042;-79
2022/07/19 08:03:56;;;;;;;6.47;4.30;;;;;;;23.31;46.77;95978.88;5010053;28;20500;-79
2022/07/19 08:06:22;;;;;;;6.20;4.00;;;;;;;23.46;46.06;95963.97;5009606;28;20038;-79
2022/07/19 08:08:47;;;;;;;5.22;3.60;;;;;;;23.72;44.46;95970.00;5009440;28;20049;-82
2022/07/19 08:11:13;;;;;;;11.00;4.40;;;;;;;23.57;46.90;95975.00;5023283;28;20053;-82
2022/07/19 08:13:38;;;;;;;8.30;4.47;;;;;;;23.51;47.00;95962.94;5007331;28;20041;-83
2022/07/19 08:16:04;;;;;;;9.80;4.32;;;;;;;23.80;46.01;95971.78;5010794;28;20058;-80
2022/07/19 08:18:30;;;;;;;5.93;4.22;;;;;;;23.80;45.44;95966.41;5010298;28;20084;-80
2022/07/19 08:20:55;;;;;;;6.18;4.38;;;;;;;24.15;43.59;95971.16;5009051;28;20045;-81
2022/07/19 08:23:21;;;;;;;8.95;4.50;;;;;;;24.31;43.66;95969.25;5021325;28;20038;-79
2022/07/19 08:25:46;;;;;;;10.68;4.40;;;;;;;24.33;43.31;95960.84;5009906;28;20034;-78
2022/07/19 08:28:12;;;;;;;11.75;4.40;;;;;;;24.53;42.71;95964.38;4998977;28;20119;-78
2022/07/19 08:30:37;;;;;;;7.03;4.10;;;;;;;24.46;43.16;95961.53;5010112;28;20049;-79
2022/07/19 08:33:06;;;;;;;6.45;4.40;;;;;;;24.33;44.52;95960.84;5024190;28;20528;-78
2022/07/19 08:35:32;;;;;;;8.52;4.82;;;;;;;24.57;43.08;95959.88;5024517;28;20045;-79
2022/07/19 08:37:58;;;;;;;8.10;4.70;;;;;;;24.48;44.06;95956.56;5006713;28;20043;-79
2022/07/19 08:40:23;;;;;;;6.53;4.53;;;;;;;24.60;43.65;95959.19;5003916;28;20087;-78
2022/07/19 08:42:50;;;;;;;7.40;4.47;;;;;;;24.78;42.33;95959.59;5012944;28;20092;-79
2022/07/19 08:45:16;;;;;;;7.63;4.15;;;;;;;24.92;39.93;95956.44;5012125;28;20120;-79
2022/07/19 08:47:43;;;;;;;8.48;4.32;;;;;;;24.70;39.86;95964.03;5011177;28;20129;-82
2022/07/19 08:50:11;;;;;;;7.78;4.40;;;;;;;24.79;40.94;95965.78;5010451;28;20041;-87
2022/07/19 08:52:37;;;;;;;9.15;4.45;;;;;;;24.87;39.12;95962.88;5026219;28;20052;-79
2022/07/19 08:55:04;;;;;;;6.70;4.07;;;;;;;24.77;40.86;95954.56;5008607;28;20041;-78
2022/07/19 09:00:14;;;;;;;;;;;;;;;25.23;38.54;95957.50;5007653;28;20049;-79
2022/07/19 09:02:39;;;;;;;7.10;3.90;;;;;;;25.51;37.43;95951.13;5008692;28;20623;-80
2022/07/19 09:05:10;;;;;;;11.13;4.32;;;;;;;25.38;38.17;95948.56;5009899;28;20124;-80
2022/07/19 09:07:37;;;;;;;5.82;3.90;;;;;;;25.62;37.28;95944.03;5009085;28;20038;-79
2022/07/19 09:10:22;;;;;;;9.48;4.43;;;;;;;25.61;38.25;95950.56;5009803;28;20069;-79
2022/07/19 09:13:09;;;;;;;7.22;3.95;;;;;;;25.70;36.21;95948.44;5002457;28;20040;-80
2022/07/19 09:15:55;;;;;;;5.70;3.70;;;;;;;25.91;34.51;95950.72;5008272;28;20041;-79
2022/07/19 09:18:35;;;;;;;7.72;4.38;;;;;;;25.82;35.69;95954.81;5001261;28;20145;-79
2022/07/19 09:21:04;;;;;;;5.90;3.88;;;;;;;25.80;35.69;95946.28;5006064;28;20053;-79
2022/07/19 09:23:30;;;;;;;6.53;3.60;;;;;;;26.09;34.33;95948.38;5022490;28;20033;-79
2022/07/19 09:26:05;;;;;;;5.38;3.60;;;;;;;26.11;34.12;95946.09;5002203;28;20033;-79
2022/07/19 09:28:35;;;;;;;9.43;4.32;;;;;;;26.21;34.39;95938.53;5006996;28;20049;-79
2022/07/19 09:31:02;;;;;;;7.20;3.88;;;;;;;26.22;33.62;95940.09;4998383;28;20112;-80
2022/07/19 09:33:32;;;;;;;6.10;3.97;;;;;;;26.26;34.94;95941.72;5008261;28;20048;-79
2022/07/19 09:35:59;;;;;;;6.97;3.85;;;;;;;26.41;33.23;95937.31;5009301;28;20042;-79
2022/07/19 09:38:27;;;;;;;7.43;4.13;;;;;;;26.68;33.93;95940.06;5009650;28;20045;-83
2022/07/19 09:41:19;;;;;;;7.32;3.60;;;;;;;26.80;32.97;95937.16;5004734;28;20042;-79
2022/07/19 09:43:59;;;;;;;5.75;3.70;;;;;;;26.86;34.24;95929.50;5008909;28;20427;-80
2022/07/19 09:46:32;;;;;;;5.90;4.05;;;;;;;27.02;34.97;95932.03;4998686;28;20053;-81
2022/07/19 09:49:08;;;;;;;6.70;4.43;;;;;;;27.28;35.02;95927.72;5022662;28;20496;-81
2022/07/19 09:51:36;;;;;;;10.32;4.28;;;;;;;27.34;34.44;95923.59;5018567;28;20042;-78
2022/07/19 09:54:04;;;;;;;9.55;3.88;;;;;;;27.16;34.08;95930.69;5007528;28;20046;-78
2022/07/19 09:56:30;;;;;;;8.52;4.20;;;;;;;27.05;34.89;95920.53;5011424;28;20050;-79
2022/07/19 09:58:58;;;;;;;7.35;4.00;;;;;;;27.21;34.17;95924.94;5018961;28;20049;-77
2022/07/19 10:01:25;;;;;;;8.77;4.35;;;;;;;27.47;35.33;95924.91;5023947;28;20044;-78
2022/07/19 10:03:57;;;;;;;10.05;4.30;;;;;;;27.75;34.78;95920.94;5026125;28;20061;-77
2022/07/19 10:06:25;;;;;;;7.45;4.43;;;;;;;27.80;34.23;95920.59;5030390;28;20049;-76
2022/07/19 10:08:51;;;;;;;7.78;4.20;;;;;;;27.92;34.68;95926.91;5002297;28;20045;-77
2022/07/19 10:11:17;;;;;;;6.88;4.30;;;;;;;28.00;34.64;95912.28;5009877;28;20042;-76
2022/07/19 10:13:43;;;;;;;8.20;4.53;;;;;;;28.03;34.34;95900.75;5028454;28;20034;-75
2022/07/19 10:16:14;;;;;;;12.45;4.80;;;;;;;28.07;34.51;95901.53;5012975;28;21980;-78
2022/07/19 10:19:08;;;;;;;7.47;4.30;;;;;;;28.29;34.05;95896.31;5012758;28;20504;-76
2022/07/19 10:21:35;;;;;;;7.05;4.15;;;;;;;28.46;33.51;95895.66;5011379;28;20049;-78
2022/07/19 10:24:01;;;;;;;5.57;3.90;;;;;;;28.61;33.85;95899.25;5012185;28;20049;-78
2022/07/19 10:26:37;;;;;;;5.22;4.10;;;;;;;28.86;32.00;95895.91;5010303;28;20048;-77
2022/07/19 10:29:10;;;;;;;5.82;3.92;;;;;;;28.94;32.06;95896.75;5014932;28;20042;-78
2022/07/19 10:31:36;;;;;;;7.18;4.05;;;;;;;29.16;32.95;95886.75;5012888;28;20112;-78
2022/07/19 10:34:07;;;;;;;8.93;3.63;;;;;;;29.25;29.71;95889.13;5012660;28;20073;-77
2022/07/19 10:36:38;;;;;;;7.38;4.20;;;;;;;29.28;30.83;95893.78;5010496;28;20049;-76
2022/07/19 10:39:24;;;;;;;7.55;4.75;;;;;;;29.35;31.26;95888.41;5027285;28;20049;-77
2022/07/19 10:42:13;;;;;;;7.00;4.07;;;;;;;29.53;31.57;95891.94;5014391;28;20046;-77
2022/07/19 10:44:57;;;;;;;6.28;4.20;;;;;;;29.88;30.78;95887.78;5012720;28;20407;-77
2022/07/19 10:47:31;;;;;;;7.65;4.10;;;;;;;30.29;30.81;95885.84;5013733;28;20030;-78
2022/07/19 10:50:08;;;;;;;7.55;4.40;;;;;;;30.40;29.35;95886.56;5025210;28;20492;-78
2022/07/19 10:52:35;;;;;;;7.28;3.95;;;;;;;30.53;27.43;95893.19;5008207;28;20037;-77
2022/07/19 10:55:25;;;;;;;7.30;4.07;;;;;;;30.65;25.73;95888.53;5010954;28;20056;-77
2022/07/19 10:57:52;;;;;;;8.15;4.20;;;;;;;30.97;26.38;95887.66;5010631;28;20038;-80
2022/07/19 11:00:23;;;;;;;12.18;4.95;;;;;;;30.92;27.37;95886.13;5013167;28;20041;-77
2022/07/19 11:02:50;;;;;;;9.05;4.20;;;;;;;31.29;27.20;95873.19;5011376;28;20050;-77
2022/07/19 11:05:28;;;;;;;7.60;4.80;;;;;;;31.52;25.80;95873.44;5026577;28;20049;-77
2022/07/19 11:07:56;;;;;;;8.20;4.20;;;;;;;31.89;26.08;95869.31;5012493;28;20060;-79
2022/07/19 11:10:28;;;;;;;7.05;4.00;;;;;;;32.29;26.39;95864.34;5027463;28;20038;-77
2022/07/19 11:12:56;;;;;;;9.23;5.05;;;;;;;31.87;24.47;95860.81;5008159;28;20042;-77
2022/07/19 11:15:22;;;;;;;12.63;5.13;;;;;;;32.46;25.04;95861.88;5013615;28;20042;-78
2022/07/19 11:17:56;;;;;;;7.93;4.35;;;;;;;32.65;26.27;95858.56;5014403;28;20044;-78
2022/07/19 11:20:26;;;;;;;;;;;;;;;33.59;24.88;95852.00;5013588;28;20164;-78
2022/07/19 11:22:54;;;;;;;7.20;4.90;;;;;;;33.92;24.14;95863.22;5026263;28;19937;-78
2022/07/19 11:25:32;;;;;;;14.27;5.00;;;;;;;32.99;22.96;95855.09;4995064;28;20042;-78
2022/07/19 11:27:59;;;;;;;8.38;5.32;;;;;;;33.41;22.77;95851.47;5028447;28;20404;-79
2022/07/19 11:30:30;;;;;;;7.40;4.85;;;;;;;33.08;22.89;95856.56;5014349;28;20045;-80
2022/07/19 11:32:58;;;;;;;9.75;5.40;;;;;;;33.78;21.98;95855.25;5014357;28;20492;-81
2022/07/19 11:35:25;;;;;;;8.18;5.40;;;;;;;33.95;21.92;95837.81;5024952;28;20041;-79